sensor_id;sensor_type;location;lat;lon;timestamp;pressure;altitude;pressure_sealevel;temperature;humidity
49529;BME280;35423;37.320;-121.762;2023-05-11T00:01:33;100154.95;;;31.01;14.98
49529;BME280;35423;37.320;-121.762;2023-05-11T00:04:00;100156.13;;;30.77;14.89
49529;BME280;35423;37.320;-121.762;2023-05-11T00:06:30;100153.84;;;30.94;14.96
49529;BME280;35423;37.320;-121.762;2023-05-11T00:09:01;100153.72;;;30.82;15.02
49529;BME280;35423;37.320;-121.762;2023-05-11T00:11:27;100151.54;;;30.51;14.96
49529;BME280;35423;37.320;-121.762;2023-05-11T00:13:52;100152.74;;;30.44;15.04
49529;BME280;35423;37.320;-121.762;2023-05-11T00:16:25;100152.88;;;30.45;15.19
49529;BME280;35423;37.320;-121.762;2023-05-11T00:18:50;100148.87;;;30.74;15.16
49529;BME280;35423;37.320;-121.762;2023-05-11T00:21:17;100146.52;;;30.72;15.11
49529;BME280;35423;37.320;-121.762;2023-05-11T00:23:44;100143.89;;;30.70;15.25
49529;BME280;35423;37.320;-121.762;2023-05-11T00:26:15;100146.01;;;30.45;15.14
49529;BME280;35423;37.320;-121.762;2023-05-11T00:28:40;100145.04;;;30.63;15.06
49529;BME280;35423;37.320;-121.762;2023-05-11T00:31:08;100141.07;;;30.31;15.13
49529;BME280;35423;37.320;-121.762;2023-05-11T00:33:33;100147.28;;;30.44;15.25
49529;BME280;35423;37.320;-121.762;2023-05-11T00:35:59;100148.90;;;30.33;15.27
49529;BME280;35423;37.320;-121.762;2023-05-11T00:38:26;100142.61;;;30.22;15.36
49529;BME280;35423;37.320;-121.762;2023-05-11T00:40:54;100145.17;;;30.09;15.42
49529;BME280;35423;37.320;-121.762;2023-05-11T00:43:19;100142.92;;;29.97;15.51
49529;BME280;35423;37.320;-121.762;2023-05-11T00:45:47;100141.69;;;29.83;15.79
49529;BME280;35423;37.320;-121.762;2023-05-11T00:48:14;100148.64;;;29.82;15.78
49529;BME280;35423;37.320;-121.762;2023-05-11T00:50:42;100154.09;;;30.25;15.88
49529;BME280;35423;37.320;-121.762;2023-05-11T00:53:17;100151.35;;;29.67;15.73
49529;BME280;35423;37.320;-121.762;2023-05-11T00:55:42;100149.93;;;29.65;15.84
49529;BME280;35423;37.320;-121.762;2023-05-11T00:58:08;100148.89;;;29.77;15.93
49529;BME280;35423;37.320;-121.762;2023-05-11T01:00:34;100146.63;;;29.96;15.97
49529;BME280;35423;37.320;-121.762;2023-05-11T01:03:03;100143.68;;;29.88;16.09
49529;BME280;35423;37.320;-121.762;2023-05-11T01:05:39;100144.23;;;29.44;16.16
49529;BME280;35423;37.320;-121.762;2023-05-11T01:08:01;100146.57;;;29.29;16.39
49529;BME280;35423;37.320;-121.762;2023-05-11T01:10:37;100149.96;;;29.27;16.44
49529;BME280;35423;37.320;-121.762;2023-05-11T01:12:58;100150.42;;;29.41;16.51
49529;BME280;35423;37.320;-121.762;2023-05-11T01:15:23;100149.86;;;29.06;16.66
49529;BME280;35423;37.320;-121.762;2023-05-11T01:17:50;100155.32;;;29.26;16.67
49529;BME280;35423;37.320;-121.762;2023-05-11T01:20:17;100157.63;;;29.18;16.66
49529;BME280;35423;37.320;-121.762;2023-05-11T01:22:54;100158.51;;;29.03;16.82
49529;BME280;35423;37.320;-121.762;2023-05-11T01:25:19;100161.58;;;28.95;17.03
49529;BME280;35423;37.320;-121.762;2023-05-11T01:27:53;100161.86;;;28.84;17.16
49529;BME280;35423;37.320;-121.762;2023-05-11T01:32:30;100163.04;;;28.62;17.41
49529;BME280;35423;37.320;-121.762;2023-05-11T01:34:59;100169.99;;;28.50;17.42
49529;BME280;35423;37.320;-121.762;2023-05-11T01:37:21;100167.88;;;28.27;17.56
49529;BME280;35423;37.320;-121.762;2023-05-11T01:39:53;100167.12;;;28.35;17.71
49529;BME280;35423;37.320;-121.762;2023-05-11T01:42:22;100168.66;;;28.26;17.89
49529;BME280;35423;37.320;-121.762;2023-05-11T01:44:50;100168.07;;;28.13;18.02
49529;BME280;35423;37.320;-121.762;2023-05-11T01:47:14;100165.77;;;27.84;18.03
49529;BME280;35423;37.320;-121.762;2023-05-11T01:49:44;100168.36;;;27.99;18.13
49529;BME280;35423;37.320;-121.762;2023-05-11T01:52:11;100167.60;;;27.90;18.15
49529;BME280;35423;37.320;-121.762;2023-05-11T01:54:40;100169.75;;;27.84;18.13
49529;BME280;35423;37.320;-121.762;2023-05-11T01:57:06;100170.69;;;27.67;18.16
49529;BME280;35423;37.320;-121.762;2023-05-11T01:59:35;100168.34;;;27.62;18.35
49529;BME280;35423;37.320;-121.762;2023-05-11T02:02:02;100168.57;;;27.84;18.50
49529;BME280;35423;37.320;-121.762;2023-05-11T02:04:29;100171.19;;;27.81;18.54
49529;BME280;35423;37.320;-121.762;2023-05-11T02:06:59;100167.58;;;27.48;18.45
49529;BME280;35423;37.320;-121.762;2023-05-11T02:09:32;100168.37;;;27.65;18.32
49529;BME280;35423;37.320;-121.762;2023-05-11T02:11:58;100175.18;;;27.48;18.46
49529;BME280;35423;37.320;-121.762;2023-05-11T02:14:29;100169.18;;;27.32;18.52
49529;BME280;35423;37.320;-121.762;2023-05-11T02:16:55;100168.53;;;27.16;18.52
49529;BME280;35423;37.320;-121.762;2023-05-11T02:19:34;100170.47;;;27.34;18.64
49529;BME280;35423;37.320;-121.762;2023-05-11T02:21:59;100170.69;;;26.74;18.67
49529;BME280;35423;37.320;-121.762;2023-05-11T02:24:29;100172.56;;;26.53;18.80
49529;BME280;35423;37.320;-121.762;2023-05-11T02:27:01;100176.03;;;26.81;18.86
49529;BME280;35423;37.320;-121.762;2023-05-11T02:29:26;100178.96;;;26.39;18.99
49529;BME280;35423;37.320;-121.762;2023-05-11T02:31:56;100180.54;;;26.48;19.08
49529;BME280;35423;37.320;-121.762;2023-05-11T02:34:23;100183.79;;;26.32;19.16
49529;BME280;35423;37.320;-121.762;2023-05-11T02:36:48;100183.59;;;25.89;19.24
49529;BME280;35423;37.320;-121.762;2023-05-11T02:39:14;100188.50;;;25.92;19.38
49529;BME280;35423;37.320;-121.762;2023-05-11T02:41:44;100189.64;;;26.07;19.49
49529;BME280;35423;37.320;-121.762;2023-05-11T02:44:10;100196.08;;;25.65;19.65
49529;BME280;35423;37.320;-121.762;2023-05-11T02:46:41;100195.10;;;25.79;19.74
49529;BME280;35423;37.320;-121.762;2023-05-11T02:49:10;100200.87;;;25.20;19.80
49529;BME280;35423;37.320;-121.762;2023-05-11T02:51:36;100208.64;;;25.56;19.89
49529;BME280;35423;37.320;-121.762;2023-05-11T02:54:01;100204.13;;;25.43;19.98
49529;BME280;35423;37.320;-121.762;2023-05-11T02:56:28;100213.44;;;25.24;20.08
49529;BME280;35423;37.320;-121.762;2023-05-11T02:58:55;100215.18;;;25.04;20.22
49529;BME280;35423;37.320;-121.762;2023-05-11T03:01:20;100219.00;;;25.12;20.26
49529;BME280;35423;37.320;-121.762;2023-05-11T03:03:51;100222.22;;;24.75;20.35
49529;BME280;35423;37.320;-121.762;2023-05-11T03:06:16;100223.95;;;24.82;20.52
49529;BME280;35423;37.320;-121.762;2023-05-11T03:08:41;100226.75;;;24.67;20.56
49529;BME280;35423;37.320;-121.762;2023-05-11T03:11:07;100227.33;;;24.47;20.67
49529;BME280;35423;37.320;-121.762;2023-05-11T03:13:32;100226.06;;;24.32;20.83
49529;BME280;35423;37.320;-121.762;2023-05-11T03:16:05;100235.25;;;24.20;20.98
49529;BME280;35423;37.320;-121.762;2023-05-11T03:18:31;100233.98;;;24.29;21.13
49529;BME280;35423;37.320;-121.762;2023-05-11T03:20:57;100232.03;;;24.24;21.18
49529;BME280;35423;37.320;-121.762;2023-05-11T03:23:23;100236.62;;;24.36;21.30
49529;BME280;35423;37.320;-121.762;2023-05-11T03:25:53;100233.04;;;23.97;21.42
49529;BME280;35423;37.320;-121.762;2023-05-11T03:28:24;100235.88;;;23.82;21.57
49529;BME280;35423;37.320;-121.762;2023-05-11T03:30:59;100237.46;;;23.99;21.67
49529;BME280;35423;37.320;-121.762;2023-05-11T03:33:29;100240.33;;;23.86;21.75
49529;BME280;35423;37.320;-121.762;2023-05-11T03:36:04;100239.73;;;24.03;21.83
49529;BME280;35423;37.320;-121.762;2023-05-11T03:38:30;100240.88;;;23.71;21.84
49529;BME280;35423;37.320;-121.762;2023-05-11T03:41:00;100244.93;;;23.39;22.02
49529;BME280;35423;37.320;-121.762;2023-05-11T03:43:42;100247.95;;;23.53;22.07
49529;BME280;35423;37.320;-121.762;2023-05-11T03:46:11;100247.89;;;23.19;22.14
49529;BME280;35423;37.320;-121.762;2023-05-11T03:48:37;100244.79;;;23.36;22.22
49529;BME280;35423;37.320;-121.762;2023-05-11T03:51:04;100242.63;;;23.31;22.20
49529;BME280;35423;37.320;-121.762;2023-05-11T03:53:30;100242.04;;;23.20;22.31
49529;BME280;35423;37.320;-121.762;2023-05-11T03:55:59;100242.05;;;23.17;22.32
49529;BME280;35423;37.320;-121.762;2023-05-11T03:58:26;100245.50;;;23.08;22.39
49529;BME280;35423;37.320;-121.762;2023-05-11T04:00:56;100249.55;;;23.02;22.41
49529;BME280;35423;37.320;-121.762;2023-05-11T04:03:22;100250.97;;;22.90;22.46
49529;BME280;35423;37.320;-121.762;2023-05-11T04:06:06;100251.00;;;22.80;22.50
49529;BME280;35423;37.320;-121.762;2023-05-11T04:08:33;100250.21;;;22.89;22.62
49529;BME280;35423;37.320;-121.762;2023-05-11T04:11:07;100253.69;;;23.11;22.72
49529;BME280;35423;37.320;-121.762;2023-05-11T04:13:35;100254.32;;;22.58;22.76
49529;BME280;35423;37.320;-121.762;2023-05-11T04:16:19;100253.49;;;22.99;22.80
49529;BME280;35423;37.320;-121.762;2023-05-11T04:18:48;100256.04;;;22.67;22.86
49529;BME280;35423;37.320;-121.762;2023-05-11T04:21:13;100256.92;;;22.86;22.92
49529;BME280;35423;37.320;-121.762;2023-05-11T04:23:41;100257.94;;;22.47;23.01
49529;BME280;35423;37.320;-121.762;2023-05-11T04:26:14;100261.97;;;22.62;23.13
49529;BME280;35423;37.320;-121.762;2023-05-11T04:28:42;100268.74;;;22.23;23.18
49529;BME280;35423;37.320;-121.762;2023-05-11T04:31:09;100275.80;;;22.45;23.22
49529;BME280;35423;37.320;-121.762;2023-05-11T04:33:44;100278.22;;;22.40;23.31
49529;BME280;35423;37.320;-121.762;2023-05-11T04:36:23;100285.06;;;22.31;23.38
49529;BME280;35423;37.320;-121.762;2023-05-11T04:38:58;100286.23;;;22.24;23.41
49529;BME280;35423;37.320;-121.762;2023-05-11T04:41:27;100285.27;;;22.18;23.46
49529;BME280;35423;37.320;-121.762;2023-05-11T04:43:52;100282.65;;;22.11;23.54
49529;BME280;35423;37.320;-121.762;2023-05-11T04:46:16;100282.71;;;21.79;23.60
49529;BME280;35423;37.320;-121.762;2023-05-11T04:48:43;100285.57;;;22.03;23.63
49529;BME280;35423;37.320;-121.762;2023-05-11T04:51:16;100288.92;;;21.98;23.67
49529;BME280;35423;37.320;-121.762;2023-05-11T04:53:41;100288.07;;;21.92;23.68
49529;BME280;35423;37.320;-121.762;2023-05-11T04:56:07;100291.59;;;22.08;23.73
49529;BME280;35423;37.320;-121.762;2023-05-11T04:58:35;100295.02;;;21.78;23.75
49529;BME280;35423;37.320;-121.762;2023-05-11T05:01:01;100295.91;;;21.72;23.79
49529;BME280;35423;37.320;-121.762;2023-05-11T05:03:27;100301.12;;;21.64;23.90
49529;BME280;35423;37.320;-121.762;2023-05-11T05:06:00;100303.95;;;21.59;23.94
49529;BME280;35423;37.320;-121.762;2023-05-11T05:08:29;100309.65;;;21.73;23.97
49529;BME280;35423;37.320;-121.762;2023-05-11T05:10:55;100311.75;;;21.91;23.98
49529;BME280;35423;37.320;-121.762;2023-05-11T05:13:23;100318.40;;;21.65;24.02
49529;BME280;35423;37.320;-121.762;2023-05-11T05:15:50;100316.60;;;21.79;24.12
49529;BME280;35423;37.320;-121.762;2023-05-11T05:18:16;100320.56;;;21.55;24.11
49529;BME280;35423;37.320;-121.762;2023-05-11T05:20:48;100323.98;;;21.47;24.22
49529;BME280;35423;37.320;-121.762;2023-05-11T05:23:17;100323.35;;;21.41;24.29
49529;BME280;35423;37.320;-121.762;2023-05-11T05:25:42;100324.33;;;21.46;24.27
49529;BME280;35423;37.320;-121.762;2023-05-11T05:28:09;100325.82;;;21.36;24.34
49529;BME280;35423;37.320;-121.762;2023-05-11T05:30:41;100324.91;;;21.52;24.45
49529;BME280;35423;37.320;-121.762;2023-05-11T05:33:06;100329.09;;;21.28;24.54
49529;BME280;35423;37.320;-121.762;2023-05-11T05:35:32;100329.59;;;21.49;24.55
49529;BME280;35423;37.320;-121.762;2023-05-11T05:38:01;100329.79;;;21.50;24.54
49529;BME280;35423;37.320;-121.762;2023-05-11T05:40:27;100328.94;;;21.23;24.64
49529;BME280;35423;37.320;-121.762;2023-05-11T05:42:52;100327.81;;;20.99;24.66
49529;BME280;35423;37.320;-121.762;2023-05-11T05:45:26;100327.34;;;21.44;24.71
49529;BME280;35423;37.320;-121.762;2023-05-11T05:47:52;100329.11;;;21.43;24.76
49529;BME280;35423;37.320;-121.762;2023-05-11T05:50:18;100329.03;;;21.42;24.80
49529;BME280;35423;37.320;-121.762;2023-05-11T05:52:43;100328.73;;;21.69;24.85
49529;BME280;35423;37.320;-121.762;2023-05-11T05:55:11;100329.00;;;20.96;24.86
49529;BME280;35423;37.320;-121.762;2023-05-11T05:57:44;100328.81;;;21.39;24.93
49529;BME280;35423;37.320;-121.762;2023-05-11T06:00:14;100332.13;;;21.64;24.98
49529;BME280;35423;37.320;-121.762;2023-05-11T06:02:43;100331.73;;;21.40;24.98
49529;BME280;35423;37.320;-121.762;2023-05-11T06:05:08;100331.36;;;21.39;25.02
49529;BME280;35423;37.320;-121.762;2023-05-11T06:07:39;100330.08;;;21.41;25.00
49529;BME280;35423;37.320;-121.762;2023-05-11T06:10:06;100329.01;;;21.48;24.96
49529;BME280;35423;37.320;-121.762;2023-05-11T06:12:33;100327.84;;;21.19;25.06
49529;BME280;35423;37.320;-121.762;2023-05-11T06:14:58;100329.62;;;21.41;24.89
49529;BME280;35423;37.320;-121.762;2023-05-11T06:17:24;100328.75;;;21.49;25.05
49529;BME280;35423;37.320;-121.762;2023-05-11T06:20:01;100328.27;;;21.73;25.07
49529;BME280;35423;37.320;-121.762;2023-05-11T06:22:26;100326.38;;;21.43;25.12
49529;BME280;35423;37.320;-121.762;2023-05-11T06:24:52;100325.41;;;21.70;25.15
49529;BME280;35423;37.320;-121.762;2023-05-11T06:27:17;100328.83;;;21.36;25.26
49529;BME280;35423;37.320;-121.762;2023-05-11T06:29:44;100331.51;;;21.30;25.34
49529;BME280;35423;37.320;-121.762;2023-05-11T06:32:13;100331.13;;;21.08;25.37
49529;BME280;35423;37.320;-121.762;2023-05-11T06:34:47;100329.01;;;21.55;25.40
49529;BME280;35423;37.320;-121.762;2023-05-11T06:37:13;100325.60;;;21.23;25.45
49529;BME280;35423;37.320;-121.762;2023-05-11T06:39:41;100328.32;;;21.24;25.37
49529;BME280;35423;37.320;-121.762;2023-05-11T06:42:09;100330.76;;;21.22;25.42
49529;BME280;35423;37.320;-121.762;2023-05-11T06:44:33;100330.73;;;21.20;25.50
49529;BME280;35423;37.320;-121.762;2023-05-11T06:46:59;100328.52;;;21.16;25.50
49529;BME280;35423;37.320;-121.762;2023-05-11T06:49:32;100326.29;;;21.41;25.54
49529;BME280;35423;37.320;-121.762;2023-05-11T06:51:57;100322.20;;;21.07;25.50
49529;BME280;35423;37.320;-121.762;2023-05-11T06:54:25;100323.02;;;21.32;25.43
49529;BME280;35423;37.320;-121.762;2023-05-11T06:56:58;100322.66;;;21.51;25.53
49529;BME280;35423;37.320;-121.762;2023-05-11T06:59:21;100323.65;;;21.03;25.53
49529;BME280;35423;37.320;-121.762;2023-05-11T07:01:53;100323.53;;;21.01;25.51
49529;BME280;35423;37.320;-121.762;2023-05-11T07:04:18;100323.35;;;21.06;25.45
49529;BME280;35423;37.320;-121.762;2023-05-11T07:06:47;100322.34;;;21.21;25.59
49529;BME280;35423;37.320;-121.762;2023-05-11T07:09:11;100324.26;;;20.92;25.63
49529;BME280;35423;37.320;-121.762;2023-05-11T07:11:43;100324.08;;;21.14;25.72
49529;BME280;35423;37.320;-121.762;2023-05-11T07:14:10;100324.35;;;20.83;25.78
49529;BME280;35423;37.320;-121.762;2023-05-11T07:16:39;100325.11;;;20.84;25.81
49529;BME280;35423;37.320;-121.762;2023-05-11T07:19:07;100326.90;;;21.09;25.78
49529;BME280;35423;37.320;-121.762;2023-05-11T07:21:32;100323.45;;;20.76;25.90
49529;BME280;35423;37.320;-121.762;2023-05-11T07:23:58;100319.51;;;20.97;25.95
49529;BME280;35423;37.320;-121.762;2023-05-11T07:26:25;100318.65;;;20.96;25.99
49529;BME280;35423;37.320;-121.762;2023-05-11T07:28:51;100320.47;;;20.95;26.03
49529;BME280;35423;37.320;-121.762;2023-05-11T07:31:19;100319.25;;;21.15;26.07
49529;BME280;35423;37.320;-121.762;2023-05-11T07:33:44;100318.62;;;20.88;26.12
49529;BME280;35423;37.320;-121.762;2023-05-11T07:36:10;100321.13;;;20.59;26.15
49529;BME280;35423;37.320;-121.762;2023-05-11T07:38:37;100321.90;;;20.87;26.14
49529;BME280;35423;37.320;-121.762;2023-05-11T07:41:02;100317.49;;;21.03;26.05
49529;BME280;35423;37.320;-121.762;2023-05-11T07:43:31;100318.16;;;20.78;26.13
49529;BME280;35423;37.320;-121.762;2023-05-11T07:45:57;100314.23;;;20.75;26.17
49529;BME280;35423;37.320;-121.762;2023-05-11T07:48:25;100315.40;;;20.99;26.17
49529;BME280;35423;37.320;-121.762;2023-05-11T07:50:53;100315.36;;;20.69;26.28
49529;BME280;35423;37.320;-121.762;2023-05-11T07:53:18;100310.86;;;20.67;26.23
49529;BME280;35423;37.320;-121.762;2023-05-11T07:55:46;100308.76;;;20.69;26.23
49529;BME280;35423;37.320;-121.762;2023-05-11T07:58:13;100308.28;;;20.71;26.19
49529;BME280;35423;37.320;-121.762;2023-05-11T08:00:45;100311.08;;;20.86;26.28
49529;BME280;35423;37.320;-121.762;2023-05-11T08:03:11;100309.39;;;20.84;26.29
49529;BME280;35423;37.320;-121.762;2023-05-11T08:05:36;100311.47;;;20.82;26.34
49529;BME280;35423;37.320;-121.762;2023-05-11T08:08:05;100308.38;;;20.83;26.35
49529;BME280;35423;37.320;-121.762;2023-05-11T08:10:30;100306.63;;;20.64;26.40
49529;BME280;35423;37.320;-121.762;2023-05-11T08:12:56;100304.67;;;20.66;26.44
49529;BME280;35423;37.320;-121.762;2023-05-11T08:15:33;100299.09;;;20.88;26.48
49529;BME280;35423;37.320;-121.762;2023-05-11T08:17:58;100301.38;;;20.88;26.51
49529;BME280;35423;37.320;-121.762;2023-05-11T08:20:24;100301.70;;;20.65;26.58
49529;BME280;35423;37.320;-121.762;2023-05-11T08:22:50;100304.32;;;20.71;26.56
49529;BME280;35423;37.320;-121.762;2023-05-11T08:25:21;100306.12;;;20.70;26.61
49529;BME280;35423;37.320;-121.762;2023-05-11T08:27:47;100306.67;;;20.90;26.68
49529;BME280;35423;37.320;-121.762;2023-05-11T08:30:13;100305.75;;;20.89;26.69
49529;BME280;35423;37.320;-121.762;2023-05-11T08:32:38;100304.56;;;20.61;26.78
49529;BME280;35423;37.320;-121.762;2023-05-11T08:35:06;100302.46;;;20.79;26.81
49529;BME280;35423;37.320;-121.762;2023-05-11T08:37:38;100301.39;;;20.74;26.86
49529;BME280;35423;37.320;-121.762;2023-05-11T08:40:08;100301.09;;;20.47;26.89
49529;BME280;35423;37.320;-121.762;2023-05-11T08:42:35;100294.91;;;20.63;26.96
49529;BME280;35423;37.320;-121.762;2023-05-11T08:45:01;100291.50;;;20.60;27.00
49529;BME280;35423;37.320;-121.762;2023-05-11T08:47:26;100288.67;;;20.59;27.08
49529;BME280;35423;37.320;-121.762;2023-05-11T08:49:52;100285.04;;;20.39;27.09
49529;BME280;35423;37.320;-121.762;2023-05-11T08:52:18;100279.66;;;20.63;27.06
49529;BME280;35423;37.320;-121.762;2023-05-11T08:54:45;100274.71;;;20.63;27.00
49529;BME280;35423;37.320;-121.762;2023-05-11T08:57:10;100275.02;;;20.57;27.01
49529;BME280;35423;37.320;-121.762;2023-05-11T08:59:39;100272.35;;;20.52;26.98
49529;BME280;35423;37.320;-121.762;2023-05-11T09:02:06;100274.44;;;20.44;27.02
49529;BME280;35423;37.320;-121.762;2023-05-11T09:04:34;100272.03;;;20.40;27.08
49529;BME280;35423;37.320;-121.762;2023-05-11T09:06:59;100272.07;;;20.41;27.08
49529;BME280;35423;37.320;-121.762;2023-05-11T09:09:27;100272.33;;;20.38;27.12
49529;BME280;35423;37.320;-121.762;2023-05-11T09:11:53;100269.52;;;20.36;27.10
49529;BME280;35423;37.320;-121.762;2023-05-11T09:14:21;100270.98;;;20.12;27.09
49529;BME280;35423;37.320;-121.762;2023-05-11T09:16:47;100273.32;;;20.29;27.08
49529;BME280;35423;37.320;-121.762;2023-05-11T09:19:14;100275.41;;;20.26;27.07
49529;BME280;35423;37.320;-121.762;2023-05-11T09:21:38;100274.71;;;20.73;27.07
49529;BME280;35423;37.320;-121.762;2023-05-11T09:24:04;100273.46;;;20.25;27.06
49529;BME280;35423;37.320;-121.762;2023-05-11T09:26:36;100276.41;;;20.22;27.05
49529;BME280;35423;37.320;-121.762;2023-05-11T09:29:00;100272.29;;;20.18;27.08
49529;BME280;35423;37.320;-121.762;2023-05-11T09:31:36;100272.19;;;20.42;27.13
49529;BME280;35423;37.320;-121.762;2023-05-11T09:36:22;100269.75;;;20.19;27.07
49529;BME280;35423;37.320;-121.762;2023-05-11T09:38:44;100269.58;;;20.17;27.04
49529;BME280;35423;37.320;-121.762;2023-05-11T09:41:09;100270.73;;;20.17;27.00
49529;BME280;35423;37.320;-121.762;2023-05-11T09:43:35;100265.02;;;20.44;26.84
49529;BME280;35423;37.320;-121.762;2023-05-11T09:46:03;100260.95;;;20.11;26.78
49529;BME280;35423;37.320;-121.762;2023-05-11T09:48:29;100259.57;;;20.03;26.88
49529;BME280;35423;37.320;-121.762;2023-05-11T09:51:01;100255.75;;;20.00;26.95
49529;BME280;35423;37.320;-121.762;2023-05-11T09:55:52;100247.57;;;20.46;26.93
49529;BME280;35423;37.320;-121.762;2023-05-11T09:58:15;100249.08;;;19.95;26.95
49529;BME280;35423;37.320;-121.762;2023-05-11T10:00:48;100249.16;;;19.93;26.98
49529;BME280;35423;37.320;-121.762;2023-05-11T10:03:13;100250.04;;;20.18;27.01
49529;BME280;35423;37.320;-121.762;2023-05-11T10:05:38;100248.62;;;20.19;27.00
49529;BME280;35423;37.320;-121.762;2023-05-11T10:08:07;100248.26;;;19.94;26.93
49529;BME280;35423;37.320;-121.762;2023-05-11T10:10:34;100244.72;;;19.88;27.00
49529;BME280;35423;37.320;-121.762;2023-05-11T10:12:59;100246.40;;;20.12;27.00
49529;BME280;35423;37.320;-121.762;2023-05-11T10:15:26;100241.56;;;19.87;27.03
49529;BME280;35423;37.320;-121.762;2023-05-11T10:18:00;100237.30;;;20.14;27.08
49529;BME280;35423;37.320;-121.762;2023-05-11T10:20:25;100233.94;;;20.34;27.12
49529;BME280;35423;37.320;-121.762;2023-05-11T10:22:55;100233.11;;;19.78;27.17
49529;BME280;35423;37.320;-121.762;2023-05-11T10:25:21;100231.39;;;19.77;27.20
49529;BME280;35423;37.320;-121.762;2023-05-11T10:27:47;100235.48;;;19.76;27.19
49529;BME280;35423;37.320;-121.762;2023-05-11T10:30:12;100229.14;;;20.26;27.24
49529;BME280;35423;37.320;-121.762;2023-05-11T10:32:38;100231.71;;;20.23;27.27
49529;BME280;35423;37.320;-121.762;2023-05-11T10:35:04;100233.85;;;20.01;27.28
49529;BME280;35423;37.320;-121.762;2023-05-11T10:37:28;100233.51;;;19.74;27.23
49529;BME280;35423;37.320;-121.762;2023-05-11T10:39:59;100235.47;;;20.15;27.16
49529;BME280;35423;37.320;-121.762;2023-05-11T10:44:59;100232.12;;;20.11;27.14
49529;BME280;35423;37.320;-121.762;2023-05-11T10:47:38;100232.18;;;20.11;27.02
49529;BME280;35423;37.320;-121.762;2023-05-11T10:50:07;100228.90;;;19.59;26.96
49529;BME280;35423;37.320;-121.762;2023-05-11T10:54:59;100226.63;;;20.02;26.98
49529;BME280;35423;37.320;-121.762;2023-05-11T10:57:23;100224.86;;;19.75;27.01
49529;BME280;35423;37.320;-121.762;2023-05-11T11:02:06;100225.79;;;19.98;27.02
49529;BME280;35423;37.320;-121.762;2023-05-11T11:04:40;100223.85;;;19.75;27.03
49529;BME280;35423;37.320;-121.762;2023-05-11T11:07:06;100222.99;;;19.74;27.04
49529;BME280;35423;37.320;-121.762;2023-05-11T11:12:08;100222.56;;;19.90;27.00
49529;BME280;35423;37.320;-121.762;2023-05-11T11:14:24;100222.32;;;19.84;27.10
49529;BME280;35423;37.320;-121.762;2023-05-11T11:21:55;100211.35;;;19.30;27.08
49529;BME280;35423;37.320;-121.762;2023-05-11T11:26:49;100211.81;;;19.76;27.09
49529;BME280;35423;37.320;-121.762;2023-05-11T11:29:15;100207.27;;;19.52;27.14
49529;BME280;35423;37.320;-121.762;2023-05-11T11:31:41;100205.47;;;19.53;27.16
49529;BME280;35423;37.320;-121.762;2023-05-11T11:39:01;100203.85;;;19.63;27.12
49529;BME280;35423;37.320;-121.762;2023-05-11T11:41:31;100205.33;;;19.62;27.12
49529;BME280;35423;37.320;-121.762;2023-05-11T11:44:02;100204.46;;;19.57;27.18
49529;BME280;35423;37.320;-121.762;2023-05-11T11:46:30;100201.99;;;19.33;27.15
49529;BME280;35423;37.320;-121.762;2023-05-11T11:51:31;100195.94;;;19.47;27.26
49529;BME280;35423;37.320;-121.762;2023-05-11T11:53:57;100196.68;;;19.22;27.31
49529;BME280;35423;37.320;-121.762;2023-05-11T11:58:56;100197.97;;;19.39;27.40
49529;BME280;35423;37.320;-121.762;2023-05-11T12:01:22;100197.70;;;19.39;27.39
49529;BME280;35423;37.320;-121.762;2023-05-11T12:03:53;100196.54;;;19.35;27.40
49529;BME280;35423;37.320;-121.762;2023-05-11T12:06:13;100198.17;;;19.36;27.46
49529;BME280;35423;37.320;-121.762;2023-05-11T12:08:40;100194.46;;;19.37;27.51
49529;BME280;35423;37.320;-121.762;2023-05-11T12:11:16;100198.75;;;19.38;27.51
49529;BME280;35423;37.320;-121.762;2023-05-11T12:13:38;100196.39;;;19.38;27.50
49529;BME280;35423;37.320;-121.762;2023-05-11T12:16:08;100197.93;;;19.35;27.50
49529;BME280;35423;37.320;-121.762;2023-05-11T12:18:30;100200.78;;;19.31;27.54
49529;BME280;35423;37.320;-121.762;2023-05-11T12:20:56;100202.11;;;19.52;27.50
49529;BME280;35423;37.320;-121.762;2023-05-11T12:23:22;100198.87;;;19.24;27.47
49529;BME280;35423;37.320;-121.762;2023-05-11T12:28:19;100198.09;;;19.20;27.59
49529;BME280;35423;37.320;-121.762;2023-05-11T12:30:40;100197.75;;;19.21;27.57
49529;BME280;35423;37.320;-121.762;2023-05-11T12:33:13;100195.00;;;19.20;27.57
49529;BME280;35423;37.320;-121.762;2023-05-11T12:35:35;100191.37;;;19.18;27.58
49529;BME280;35423;37.320;-121.762;2023-05-11T12:38:03;100192.06;;;19.38;27.62
49529;BME280;35423;37.320;-121.762;2023-05-11T12:40:32;100193.20;;;19.13;27.65
49529;BME280;35423;37.320;-121.762;2023-05-11T12:42:59;100193.59;;;19.11;27.68
49529;BME280;35423;37.320;-121.762;2023-05-11T12:45:32;100193.64;;;18.89;27.59
49529;BME280;35423;37.320;-121.762;2023-05-11T12:48:03;100194.07;;;19.06;27.58
49529;BME280;35423;37.320;-121.762;2023-05-11T12:50:30;100191.96;;;19.04;27.63
49529;BME280;35423;37.320;-121.762;2023-05-11T12:55:27;100188.41;;;19.01;27.76
49529;BME280;35423;37.320;-121.762;2023-05-11T13:00:21;100185.33;;;19.00;27.78
49529;BME280;35423;37.320;-121.762;2023-05-11T13:02:51;100189.75;;;18.97;27.65
49529;BME280;35423;37.320;-121.762;2023-05-11T13:05:16;100197.11;;;18.91;27.75